sensor_id;sensor_type;location;lat;lon;timestamp;pressure;altitude;pressure_sealevel;temperature;humidity
7157;BME280;3620;49.862;8.758;2023-01-19T00:01:40;98117.69;;;1.27;83.91
7157;BME280;3620;49.862;8.758;2023-01-19T00:04:07;98131.56;;;1.26;84.09
7157;BME280;3620;49.862;8.758;2023-01-19T00:06:33;98125.41;;;1.30;84.05
7157;BME280;3620;49.862;8.758;2023-01-19T00:09:00;98129.78;;;1.28;83.88
7157;BME280;3620;49.862;8.758;2023-01-19T00:11:28;98125.47;;;1.27;84.71
7157;BME280;3620;49.862;8.758;2023-01-19T00:13:54;98134.25;;;1.22;84.78
7157;BME280;3620;49.862;8.758;2023-01-19T00:16:21;98130.34;;;1.39;85.04
7157;BME280;3620;49.862;8.758;2023-01-19T00:18:48;98129.09;;;1.53;85.34
7157;BME280;3620;49.862;8.758;2023-01-19T00:21:16;98126.81;;;1.42;84.82
7157;BME280;3620;49.862;8.758;2023-01-19T00:23:43;98131.03;;;1.44;85.04
7157;BME280;3620;49.862;8.758;2023-01-19T00:26:11;98124.78;;;1.53;84.54
7157;BME280;3620;49.862;8.758;2023-01-19T00:28:39;98120.03;;;1.69;83.98
7157;BME280;3620;49.862;8.758;2023-01-19T00:31:06;98125.34;;;1.63;84.50
7157;BME280;3620;49.862;8.758;2023-01-19T00:33:32;98130.53;;;1.63;84.54
7157;BME280;3620;49.862;8.758;2023-01-19T00:35:58;98130.97;;;1.47;85.19
7157;BME280;3620;49.862;8.758;2023-01-19T00:38:25;98137.88;;;1.48;86.34
7157;BME280;3620;49.862;8.758;2023-01-19T00:40:51;98140.09;;;1.61;85.34
7157;BME280;3620;49.862;8.758;2023-01-19T00:43:18;98137.75;;;1.52;85.95
7157;BME280;3620;49.862;8.758;2023-01-19T00:45:45;98144.31;;;1.65;85.60
7157;BME280;3620;49.862;8.758;2023-01-19T00:48:11;98144.16;;;1.71;85.20
7157;BME280;3620;49.862;8.758;2023-01-19T00:50:38;98142.44;;;1.70;85.35
7157;BME280;3620;49.862;8.758;2023-01-19T00:53:04;98150.09;;;1.74;85.42
7157;BME280;3620;49.862;8.758;2023-01-19T00:55:31;98145.59;;;1.81;85.00
7157;BME280;3620;49.862;8.758;2023-01-19T00:57:58;98146.38;;;1.84;84.77
7157;BME280;3620;49.862;8.758;2023-01-19T01:00:25;98152.00;;;1.68;85.47
7157;BME280;3620;49.862;8.758;2023-01-19T01:02:53;98156.38;;;1.66;85.80
7157;BME280;3620;49.862;8.758;2023-01-19T01:05:20;98149.41;;;1.68;85.63
7157;BME280;3620;49.862;8.758;2023-01-19T01:07:46;98147.81;;;1.64;86.65
7157;BME280;3620;49.862;8.758;2023-01-19T01:10:16;98159.94;;;1.62;86.79
7157;BME280;3620;49.862;8.758;2023-01-19T01:12:43;98161.56;;;1.66;87.24
7157;BME280;3620;49.862;8.758;2023-01-19T01:15:10;98152.06;;;1.65;87.37
7157;BME280;3620;49.862;8.758;2023-01-19T01:17:38;98159.03;;;1.64;88.04
7157;BME280;3620;49.862;8.758;2023-01-19T01:20:14;98162.78;;;1.53;89.08
7157;BME280;3620;49.862;8.758;2023-01-19T01:22:43;98168.34;;;1.70;88.04
7157;BME280;3620;49.862;8.758;2023-01-19T01:25:11;98163.84;;;1.78;87.88
7157;BME280;3620;49.862;8.758;2023-01-19T01:27:37;98164.78;;;1.74;88.01
7157;BME280;3620;49.862;8.758;2023-01-19T01:30:05;98166.44;;;1.78;88.09
7157;BME280;3620;49.862;8.758;2023-01-19T01:32:31;98173.47;;;1.73;88.61
7157;BME280;3620;49.862;8.758;2023-01-19T01:34:58;98175.16;;;1.74;88.66
7157;BME280;3620;49.862;8.758;2023-01-19T01:37:26;98164.88;;;1.71;88.76
7157;BME280;3620;49.862;8.758;2023-01-19T01:39:52;98171.69;;;1.75;88.75
7157;BME280;3620;49.862;8.758;2023-01-19T01:42:25;98181.13;;;1.76;89.16
7157;BME280;3620;49.862;8.758;2023-01-19T01:44:53;98177.63;;;1.78;89.07
7157;BME280;3620;49.862;8.758;2023-01-19T01:47:27;98174.69;;;1.90;88.52
7157;BME280;3620;49.862;8.758;2023-01-19T01:50:00;98178.59;;;2.05;88.24
7157;BME280;3620;49.862;8.758;2023-01-19T01:52:31;98178.97;;;1.91;88.46
7157;BME280;3620;49.862;8.758;2023-01-19T01:55:01;98174.66;;;1.92;88.68
7157;BME280;3620;49.862;8.758;2023-01-19T01:57:31;98171.84;;;1.99;88.41
7157;BME280;3620;49.862;8.758;2023-01-19T01:59:58;98173.59;;;1.99;89.22
7157;BME280;3620;49.862;8.758;2023-01-19T02:02:26;98175.31;;;2.00;89.08
7157;BME280;3620;49.862;8.758;2023-01-19T02:05:15;98181.19;;;2.05;89.23
7157;BME280;3620;49.862;8.758;2023-01-19T02:07:47;98183.50;;;2.14;88.27
7157;BME280;3620;49.862;8.758;2023-01-19T02:10:33;98174.06;;;2.13;88.56
7157;BME280;3620;49.862;8.758;2023-01-19T02:13:17;98170.19;;;1.97;89.54
7157;BME280;3620;49.862;8.758;2023-01-19T02:15:48;98171.00;;;1.99;89.58
7157;BME280;3620;49.862;8.758;2023-01-19T02:18:16;98173.78;;;1.91;90.50
7157;BME280;3620;49.862;8.758;2023-01-19T02:20:47;98172.84;;;1.94;90.14
7157;BME280;3620;49.862;8.758;2023-01-19T02:23:19;98171.94;;;1.96;90.26
7157;BME280;3620;49.862;8.758;2023-01-19T02:25:51;98177.38;;;1.87;90.72
7157;BME280;3620;49.862;8.758;2023-01-19T02:28:18;98173.84;;;1.90;90.56
7157;BME280;3620;49.862;8.758;2023-01-19T02:30:45;98178.22;;;1.88;90.98
7157;BME280;3620;49.862;8.758;2023-01-19T02:33:11;98173.38;;;1.76;91.57
7157;BME280;3620;49.862;8.758;2023-01-19T02:35:38;98180.19;;;1.80;92.05
7157;BME280;3620;49.862;8.758;2023-01-19T02:38:06;98182.06;;;1.75;92.01
7157;BME280;3620;49.862;8.758;2023-01-19T02:40:34;98174.31;;;1.73;92.02
7157;BME280;3620;49.862;8.758;2023-01-19T02:43:05;98168.47;;;1.67;92.55
7157;BME280;3620;49.862;8.758;2023-01-19T02:45:34;98161.13;;;1.81;91.56
7157;BME280;3620;49.862;8.758;2023-01-19T02:48:03;98168.09;;;1.79;92.18
7157;BME280;3620;49.862;8.758;2023-01-19T02:50:37;98155.34;;;1.71;92.58
7157;BME280;3620;49.862;8.758;2023-01-19T02:53:16;98165.78;;;1.70;92.83
7157;BME280;3620;49.862;8.758;2023-01-19T02:55:51;98171.69;;;1.75;92.45
7157;BME280;3620;49.862;8.758;2023-01-19T02:58:24;98176.19;;;1.68;92.65
7157;BME280;3620;49.862;8.758;2023-01-19T03:00:59;98175.56;;;1.59;93.53
7157;BME280;3620;49.862;8.758;2023-01-19T03:03:31;98173.03;;;1.57;93.60
7157;BME280;3620;49.862;8.758;2023-01-19T03:06:04;98167.00;;;1.57;93.77
7157;BME280;3620;49.862;8.758;2023-01-19T03:08:41;98169.47;;;1.61;93.86
7157;BME280;3620;49.862;8.758;2023-01-19T03:11:12;98171.06;;;1.65;93.60
7157;BME280;3620;49.862;8.758;2023-01-19T03:13:44;98166.25;;;1.52;93.95
7157;BME280;3620;49.862;8.758;2023-01-19T03:16:17;98171.31;;;1.58;94.36
7157;BME280;3620;49.862;8.758;2023-01-19T03:18:49;98175.56;;;1.59;94.22
7157;BME280;3620;49.862;8.758;2023-01-19T03:21:17;98185.06;;;1.60;94.08
7157;BME280;3620;49.862;8.758;2023-01-19T03:23:45;98177.53;;;1.51;95.06
7157;BME280;3620;49.862;8.758;2023-01-19T03:26:15;98182.53;;;1.57;94.24
7157;BME280;3620;49.862;8.758;2023-01-19T03:28:45;98174.94;;;1.51;94.85
7157;BME280;3620;49.862;8.758;2023-01-19T03:31:16;98177.53;;;1.51;94.96
7157;BME280;3620;49.862;8.758;2023-01-19T03:33:47;98186.00;;;1.56;94.91
7157;BME280;3620;49.862;8.758;2023-01-19T03:36:19;98177.28;;;1.60;94.67
7157;BME280;3620;49.862;8.758;2023-01-19T03:38:49;98178.34;;;1.53;94.71
7157;BME280;3620;49.862;8.758;2023-01-19T03:41:18;98189.34;;;1.28;95.02
7157;BME280;3620;49.862;8.758;2023-01-19T03:43:50;98181.78;;;1.19;96.09
7157;BME280;3620;49.862;8.758;2023-01-19T03:46:18;98178.47;;;1.14;96.58
7157;BME280;3620;49.862;8.758;2023-01-19T03:48:45;98172.63;;;1.06;97.36
7157;BME280;3620;49.862;8.758;2023-01-19T03:51:12;98182.28;;;1.00;98.58
7157;BME280;3620;49.862;8.758;2023-01-19T03:53:40;98182.94;;;1.08;98.10
7157;BME280;3620;49.862;8.758;2023-01-19T03:56:12;98190.81;;;1.03;98.45
7157;BME280;3620;49.862;8.758;2023-01-19T03:58:41;98189.03;;;1.05;98.56
7157;BME280;3620;49.862;8.758;2023-01-19T04:01:09;98186.28;;;1.13;98.14
7157;BME280;3620;49.862;8.758;2023-01-19T04:03:36;98188.00;;;1.12;98.38
7157;BME280;3620;49.862;8.758;2023-01-19T04:06:03;98180.25;;;1.12;99.25
7157;BME280;3620;49.862;8.758;2023-01-19T04:08:29;98187.25;;;1.07;98.75
7157;BME280;3620;49.862;8.758;2023-01-19T04:10:57;98178.69;;;1.05;99.20
7157;BME280;3620;49.862;8.758;2023-01-19T04:13:23;98183.81;;;1.08;99.19
7157;BME280;3620;49.862;8.758;2023-01-19T04:15:51;98198.91;;;1.25;98.49
7157;BME280;3620;49.862;8.758;2023-01-19T04:18:19;98195.50;;;1.24;98.00
7157;BME280;3620;49.862;8.758;2023-01-19T04:20:45;98195.84;;;1.09;98.67
7157;BME280;3620;49.862;8.758;2023-01-19T04:23:12;98191.47;;;1.11;99.63
7157;BME280;3620;49.862;8.758;2023-01-19T04:25:38;98187.25;;;1.07;100.00
7157;BME280;3620;49.862;8.758;2023-01-19T04:28:05;98173.13;;;1.20;99.36
7157;BME280;3620;49.862;8.758;2023-01-19T04:30:31;98185.13;;;1.24;99.24
7157;BME280;3620;49.862;8.758;2023-01-19T04:32:58;98190.31;;;1.24;99.30
7157;BME280;3620;49.862;8.758;2023-01-19T04:35:26;98195.44;;;1.26;98.73
7157;BME280;3620;49.862;8.758;2023-01-19T04:37:52;98198.88;;;1.26;98.97
7157;BME280;3620;49.862;8.758;2023-01-19T04:40:19;98204.19;;;1.20;98.96
7157;BME280;3620;49.862;8.758;2023-01-19T04:42:46;98202.50;;;1.19;99.67
7157;BME280;3620;49.862;8.758;2023-01-19T04:45:12;98204.28;;;1.17;99.74
7157;BME280;3620;49.862;8.758;2023-01-19T04:47:39;98192.97;;;1.21;99.52
7157;BME280;3620;49.862;8.758;2023-01-19T04:50:08;98193.84;;;1.20;99.99
7157;BME280;3620;49.862;8.758;2023-01-19T04:52:36;98186.88;;;1.22;99.59
7157;BME280;3620;49.862;8.758;2023-01-19T04:55:04;98192.78;;;1.29;99.67
7157;BME280;3620;49.862;8.758;2023-01-19T04:57:31;98192.16;;;1.19;99.68
7157;BME280;3620;49.862;8.758;2023-01-19T04:59:58;98195.38;;;1.27;99.71
7157;BME280;3620;49.862;8.758;2023-01-19T05:02:25;98204.19;;;1.20;99.68
7157;BME280;3620;49.862;8.758;2023-01-19T05:04:51;98207.84;;;1.13;100.00
7157;BME280;3620;49.862;8.758;2023-01-19T05:07:18;98210.88;;;1.30;99.72
7157;BME280;3620;49.862;8.758;2023-01-19T05:09:46;98206.44;;;1.35;99.41
7157;BME280;3620;49.862;8.758;2023-01-19T05:12:12;98212.66;;;1.28;99.35
7157;BME280;3620;49.862;8.758;2023-01-19T05:14:39;98210.75;;;1.33;98.97
7157;BME280;3620;49.862;8.758;2023-01-19T05:17:05;98211.34;;;1.44;98.92
7157;BME280;3620;49.862;8.758;2023-01-19T05:19:32;98215.88;;;1.36;99.36
7157;BME280;3620;49.862;8.758;2023-01-19T05:21:58;98219.28;;;1.38;99.37
7157;BME280;3620;49.862;8.758;2023-01-19T05:24:25;98212.63;;;1.62;100.00
7157;BME280;3620;49.862;8.758;2023-01-19T05:26:53;98219.78;;;1.85;100.00
7157;BME280;3620;49.862;8.758;2023-01-19T05:29:19;98214.19;;;1.68;99.15
7157;BME280;3620;49.862;8.758;2023-01-19T05:31:46;98218.06;;;1.53;98.56
7157;BME280;3620;49.862;8.758;2023-01-19T05:34:13;98214.66;;;1.51;98.70
7157;BME280;3620;49.862;8.758;2023-01-19T05:36:40;98214.78;;;1.46;97.66
7157;BME280;3620;49.862;8.758;2023-01-19T05:39:07;98213.81;;;1.51;98.54
7157;BME280;3620;49.862;8.758;2023-01-19T05:41:34;98219.84;;;1.49;97.98
7157;BME280;3620;49.862;8.758;2023-01-19T05:44:02;98213.69;;;1.54;97.98
7157;BME280;3620;49.862;8.758;2023-01-19T05:46:29;98208.44;;;1.57;98.05
7157;BME280;3620;49.862;8.758;2023-01-19T05:48:55;98210.22;;;1.55;98.19
7157;BME280;3620;49.862;8.758;2023-01-19T05:51:22;98207.88;;;1.45;97.57
7157;BME280;3620;49.862;8.758;2023-01-19T05:53:49;98210.16;;;1.58;96.97
7157;BME280;3620;49.862;8.758;2023-01-19T05:56:15;98210.16;;;1.58;97.10
7157;BME280;3620;49.862;8.758;2023-01-19T05:58:41;98215.34;;;1.58;96.37
7157;BME280;3620;49.862;8.758;2023-01-19T06:01:09;98214.56;;;1.54;96.34
7157;BME280;3620;49.862;8.758;2023-01-19T06:03:36;98210.06;;;1.61;96.27
7157;BME280;3620;49.862;8.758;2023-01-19T06:06:03;98221.72;;;1.77;96.06
7157;BME280;3620;49.862;8.758;2023-01-19T06:08:30;98213.91;;;1.78;96.38
7157;BME280;3620;49.862;8.758;2023-01-19T06:10:56;98230.06;;;1.88;95.60
7157;BME280;3620;49.862;8.758;2023-01-19T06:13:23;98227.41;;;1.91;95.58
7157;BME280;3620;49.862;8.758;2023-01-19T06:15:55;98224.13;;;1.84;95.26
7157;BME280;3620;49.862;8.758;2023-01-19T06:18:23;98229.81;;;1.97;94.84
7157;BME280;3620;49.862;8.758;2023-01-19T06:20:50;98230.56;;;2.00;94.75
7157;BME280;3620;49.862;8.758;2023-01-19T06:23:22;98238.16;;;2.08;94.26
7157;BME280;3620;49.862;8.758;2023-01-19T06:25:49;98240.69;;;2.09;94.34
7157;BME280;3620;49.862;8.758;2023-01-19T06:28:15;98240.50;;;2.17;93.89
7157;BME280;3620;49.862;8.758;2023-01-19T06:30:42;98239.84;;;2.09;94.48
7157;BME280;3620;49.862;8.758;2023-01-19T06:33:08;98247.16;;;2.26;93.44
7157;BME280;3620;49.862;8.758;2023-01-19T06:35:36;98247.50;;;2.13;94.31
7157;BME280;3620;49.862;8.758;2023-01-19T06:38:02;98255.56;;;2.35;93.76
7157;BME280;3620;49.862;8.758;2023-01-19T06:40:29;98253.03;;;2.32;93.08
7157;BME280;3620;49.862;8.758;2023-01-19T06:42:55;98252.59;;;2.47;92.85
7157;BME280;3620;49.862;8.758;2023-01-19T06:45:22;98250.63;;;2.55;92.30
7157;BME280;3620;49.862;8.758;2023-01-19T06:47:48;98257.63;;;2.53;91.94
7157;BME280;3620;49.862;8.758;2023-01-19T06:50:15;98262.63;;;2.59;92.12
7157;BME280;3620;49.862;8.758;2023-01-19T06:52:43;98267.81;;;2.59;91.64
7157;BME280;3620;49.862;8.758;2023-01-19T06:55:09;98266.16;;;2.57;91.99
7157;BME280;3620;49.862;8.758;2023-01-19T06:57:37;98270.59;;;2.53;91.61
7157;BME280;3620;49.862;8.758;2023-01-19T07:00:05;98271.28;;;2.58;92.39
7157;BME280;3620;49.862;8.758;2023-01-19T07:02:32;98272.91;;;2.62;91.85
7157;BME280;3620;49.862;8.758;2023-01-19T07:04:58;98277.81;;;2.71;91.11
7157;BME280;3620;49.862;8.758;2023-01-19T07:07:25;98283.19;;;2.65;90.76
7157;BME280;3620;49.862;8.758;2023-01-19T07:09:53;98284.13;;;2.63;91.60
7157;BME280;3620;49.862;8.758;2023-01-19T07:12:20;98290.25;;;2.60;91.62
7157;BME280;3620;49.862;8.758;2023-01-19T07:14:46;98292.72;;;2.65;91.37
7157;BME280;3620;49.862;8.758;2023-01-19T07:17:13;98295.97;;;2.73;91.03
7157;BME280;3620;49.862;8.758;2023-01-19T07:19:40;98291.59;;;2.73;91.06
7157;BME280;3620;49.862;8.758;2023-01-19T07:22:06;98297.31;;;2.84;90.75
7157;BME280;3620;49.862;8.758;2023-01-19T07:24:33;98299.94;;;2.84;90.50
7157;BME280;3620;49.862;8.758;2023-01-19T07:27:01;98301.72;;;2.82;89.98
7157;BME280;3620;49.862;8.758;2023-01-19T07:29:27;98301.44;;;2.91;90.75
7157;BME280;3620;49.862;8.758;2023-01-19T07:31:54;98302.53;;;2.84;90.56
7157;BME280;3620;49.862;8.758;2023-01-19T07:34:21;98304.22;;;2.56;92.20
7157;BME280;3620;49.862;8.758;2023-01-19T07:36:50;98311.81;;;2.64;91.65
7157;BME280;3620;49.862;8.758;2023-01-19T07:39:16;98310.75;;;2.69;91.30
7157;BME280;3620;49.862;8.758;2023-01-19T07:41:43;98310.53;;;2.48;92.57
7157;BME280;3620;49.862;8.758;2023-01-19T07:44:10;98311.88;;;2.61;92.27
7157;BME280;3620;49.862;8.758;2023-01-19T07:46:37;98306.31;;;2.74;91.21
7157;BME280;3620;49.862;8.758;2023-01-19T07:49:04;98312.22;;;2.79;91.38
7157;BME280;3620;49.862;8.758;2023-01-19T07:51:31;98319.09;;;2.80;92.07
7157;BME280;3620;49.862;8.758;2023-01-19T07:53:57;98321.69;;;2.80;91.48
7157;BME280;3620;49.862;8.758;2023-01-19T07:56:24;98315.25;;;2.93;91.60
7157;BME280;3620;49.862;8.758;2023-01-19T07:58:52;98309.88;;;3.00;91.08
7157;BME280;3620;49.862;8.758;2023-01-19T08:01:20;98305.38;;;2.77;91.79
7157;BME280;3620;49.862;8.758;2023-01-19T08:03:46;98315.50;;;2.84;91.74
7157;BME280;3620;49.862;8.758;2023-01-19T08:06:18;98317.16;;;2.88;91.43
7157;BME280;3620;49.862;8.758;2023-01-19T08:08:45;98312.28;;;2.76;92.42
7157;BME280;3620;49.862;8.758;2023-01-19T08:11:12;98321.00;;;2.75;92.64
7157;BME280;3620;49.862;8.758;2023-01-19T08:13:39;98319.00;;;2.83;92.37
7157;BME280;3620;49.862;8.758;2023-01-19T08:16:06;98326.13;;;2.77;91.69
7157;BME280;3620;49.862;8.758;2023-01-19T08:18:34;98322.94;;;2.67;93.02
7157;BME280;3620;49.862;8.758;2023-01-19T08:21:01;98317.41;;;2.79;92.97
7157;BME280;3620;49.862;8.758;2023-01-19T08:23:27;98310.19;;;2.89;91.39
7157;BME280;3620;49.862;8.758;2023-01-19T08:25:54;98314.41;;;2.93;91.93
7157;BME280;3620;49.862;8.758;2023-01-19T08:28:20;98320.47;;;2.92;91.93
7157;BME280;3620;49.862;8.758;2023-01-19T08:30:47;98305.84;;;2.89;91.96
7157;BME280;3620;49.862;8.758;2023-01-19T08:33:18;98313.56;;;2.92;91.73
7157;BME280;3620;49.862;8.758;2023-01-19T08:35:48;98304.03;;;2.93;90.81
7157;BME280;3620;49.862;8.758;2023-01-19T08:38:15;98311.50;;;3.04;90.17
7157;BME280;3620;49.862;8.758;2023-01-19T08:40:42;98314.28;;;2.97;89.69
7157;BME280;3620;49.862;8.758;2023-01-19T08:43:10;98311.94;;;2.88;89.88
7157;BME280;3620;49.862;8.758;2023-01-19T08:45:39;98313.47;;;2.95;89.77
7157;BME280;3620;49.862;8.758;2023-01-19T08:48:13;98315.81;;;3.03;89.65
7157;BME280;3620;49.862;8.758;2023-01-19T08:50:40;98325.00;;;3.15;89.28
7157;BME280;3620;49.862;8.758;2023-01-19T08:53:08;98316.97;;;3.22;88.63
7157;BME280;3620;49.862;8.758;2023-01-19T08:55:36;98320.00;;;3.09;88.86
7157;BME280;3620;49.862;8.758;2023-01-19T08:58:04;98313.59;;;3.19;89.20
7157;BME280;3620;49.862;8.758;2023-01-19T09:00:32;98316.00;;;3.25;89.32
7157;BME280;3620;49.862;8.758;2023-01-19T09:02:59;98317.81;;;3.23;89.26
7157;BME280;3620;49.862;8.758;2023-01-19T09:05:27;98315.56;;;3.40;89.33
7157;BME280;3620;49.862;8.758;2023-01-19T09:07:56;98319.19;;;3.34;89.20
7157;BME280;3620;49.862;8.758;2023-01-19T09:10:23;98319.97;;;3.36;88.69
7157;BME280;3620;49.862;8.758;2023-01-19T09:12:50;98313.34;;;3.54;88.65
7157;BME280;3620;49.862;8.758;2023-01-19T09:15:17;98314.03;;;3.33;88.79
7157;BME280;3620;49.862;8.758;2023-01-19T09:17:43;98321.69;;;3.10;89.33
7157;BME280;3620;49.862;8.758;2023-01-19T09:20:10;98325.47;;;3.00;89.11
7157;BME280;3620;49.862;8.758;2023-01-19T09:22:38;98322.88;;;2.98;89.16
7157;BME280;3620;49.862;8.758;2023-01-19T09:25:05;98318.66;;;2.95;90.05
7157;BME280;3620;49.862;8.758;2023-01-19T09:27:33;98315.34;;;2.90;90.04
7157;BME280;3620;49.862;8.758;2023-01-19T09:30:00;98319.09;;;2.80;90.15
7157;BME280;3620;49.862;8.758;2023-01-19T09:32:26;98311.84;;;2.91;90.11
7157;BME280;3620;49.862;8.758;2023-01-19T09:34:53;98319.09;;;2.80;90.03
7157;BME280;3620;49.862;8.758;2023-01-19T09:37:20;98315.34;;;2.90;89.03
7157;BME280;3620;49.862;8.758;2023-01-19T09:39:47;98320.34;;;2.96;88.61
7157;BME280;3620;49.862;8.758;2023-01-19T09:42:19;98327.16;;;3.01;88.35
7157;BME280;3620;49.862;8.758;2023-01-19T09:44:50;98325.63;;;2.93;88.41
7157;BME280;3620;49.862;8.758;2023-01-19T09:47:22;98329.41;;;2.83;89.34
7157;BME280;3620;49.862;8.758;2023-01-19T09:49:52;98322.22;;;2.91;90.04
7157;BME280;3620;49.862;8.758;2023-01-19T09:52:22;98326.25;;;3.02;89.29
7157;BME280;3620;49.862;8.758;2023-01-19T09:54:52;98327.06;;;3.04;88.99
7157;BME280;3620;49.862;8.758;2023-01-19T09:57:20;98327.00;;;3.07;88.93
7157;BME280;3620;49.862;8.758;2023-01-19T09:59:46;98314.41;;;3.21;88.47
7157;BME280;3620;49.862;8.758;2023-01-19T10:02:24;98328.03;;;3.29;87.81
7157;BME280;3620;49.862;8.758;2023-01-19T10:04:58;98321.47;;;3.16;88.12
7157;BME280;3620;49.862;8.758;2023-01-19T10:07:32;98329.28;;;3.16;87.96
7157;BME280;3620;49.862;8.758;2023-01-19T10:10:08;98332.94;;;3.10;88.52
7157;BME280;3620;49.862;8.758;2023-01-19T10:12:43;98331.78;;;3.19;87.67
7157;BME280;3620;49.862;8.758;2023-01-19T10:15:21;98333.59;;;3.17;87.99
7157;BME280;3620;49.862;8.758;2023-01-19T10:18:02;98334.31;;;3.22;88.10
7157;BME280;3620;49.862;8.758;2023-01-19T10:20:35;98341.06;;;3.27;88.53
7157;BME280;3620;49.862;8.758;2023-01-19T10:23:17;98346.91;;;3.34;87.14
7157;BME280;3620;49.862;8.758;2023-01-19T10:25:45;98336.44;;;3.37;87.46
7157;BME280;3620;49.862;8.758;2023-01-19T10:28:12;98346.34;;;3.52;87.38
7157;BME280;3620;49.862;8.758;2023-01-19T10:30:41;98352.03;;;3.37;87.76
7157;BME280;3620;49.862;8.758;2023-01-19T10:33:11;98351.63;;;3.21;88.55
7157;BME280;3620;49.862;8.758;2023-01-19T10:35:39;98353.19;;;3.27;88.89
7157;BME280;3620;49.862;8.758;2023-01-19T10:38:11;98348.22;;;3.47;89.12
7157;BME280;3620;49.862;8.758;2023-01-19T10:40:46;98347.47;;;3.43;88.52
7157;BME280;3620;49.862;8.758;2023-01-19T10:43:36;98349.84;;;3.51;88.02
7157;BME280;3620;49.862;8.758;2023-01-19T10:46:12;98346.44;;;3.49;88.73
7157;BME280;3620;49.862;8.758;2023-01-19T10:48:47;98346.81;;;3.37;89.75
7157;BME280;3620;49.862;8.758;2023-01-19T10:51:14;98338.78;;;3.17;90.37
7157;BME280;3620;49.862;8.758;2023-01-19T10:53:54;98340.03;;;3.33;90.13
7157;BME280;3620;49.862;8.758;2023-01-19T10:56:23;98352.81;;;3.39;90.76
7157;BME280;3620;49.862;8.758;2023-01-19T10:58:50;98348.81;;;3.29;91.05
7157;BME280;3620;49.862;8.758;2023-01-19T11:01:19;98347.13;;;3.54;90.70
7157;BME280;3620;49.862;8.758;2023-01-19T11:03:47;98346.53;;;3.46;90.53
7157;BME280;3620;49.862;8.758;2023-01-19T11:06:26;98347.19;;;3.25;91.49
7157;BME280;3620;49.862;8.758;2023-01-19T11:09:09;98336.50;;;3.34;91.80
7157;BME280;3620;49.862;8.758;2023-01-19T11:11:48;98339.97;;;3.34;91.66
7157;BME280;3620;49.862;8.758;2023-01-19T11:14:19;98353.56;;;3.15;93.30
7157;BME280;3620;49.862;8.758;2023-01-19T11:16:49;98353.19;;;3.27;93.20
7157;BME280;3620;49.862;8.758;2023-01-19T11:19:25;98349.84;;;3.51;92.31
7157;BME280;3620;49.862;8.758;2023-01-19T11:21:52;98351.47;;;3.55;92.62
7157;BME280;3620;49.862;8.758;2023-01-19T11:24:32;98352.09;;;3.34;93.29
7157;BME280;3620;49.862;8.758;2023-01-19T11:27:01;98345.31;;;3.30;93.64
7157;BME280;3620;49.862;8.758;2023-01-19T11:29:28;98351.31;;;3.32;93.80
7157;BME280;3620;49.862;8.758;2023-01-19T11:32:08;98349.09;;;3.47;94.86
7157;BME280;3620;49.862;8.758;2023-01-19T11:34:37;98333.06;;;3.61;93.91
7157;BME280;3620;49.862;8.758;2023-01-19T11:37:07;98343.03;;;3.47;93.24
7157;BME280;3620;49.862;8.758;2023-01-19T11:39:51;98352.00;;;3.64;93.12
7157;BME280;3620;49.862;8.758;2023-01-19T11:42:19;98340.00;;;3.60;92.61
7157;BME280;3620;49.862;8.758;2023-01-19T11:44:53;98349.16;;;3.72;92.51
7157;BME280;3620;49.862;8.758;2023-01-19T11:47:24;98339.41;;;3.79;92.51
7157;BME280;3620;49.862;8.758;2023-01-19T11:49:57;98335.09;;;3.51;92.80
7157;BME280;3620;49.862;8.758;2023-01-19T11:52:26;98338.41;;;3.56;93.42
7157;BME280;3620;49.862;8.758;2023-01-19T11:54:57;98343.81;;;3.49;94.23
7157;BME280;3620;49.862;8.758;2023-01-19T11:57:26;98330.03;;;3.47;94.79
7157;BME280;3620;49.862;8.758;2023-01-19T11:59:53;98335.38;;;3.42;95.00
7157;BME280;3620;49.862;8.758;2023-01-19T12:02:25;98334.56;;;3.68;95.16
7157;BME280;3620;49.862;8.758;2023-01-19T12:04:56;98333.66;;;3.69;94.68
7157;BME280;3620;49.862;8.758;2023-01-19T12:07:29;98330.72;;;3.80;94.39
7157;BME280;3620;49.862;8.758;2023-01-19T12:10:05;98331.03;;;3.70;95.10
7157;BME280;3620;49.862;8.758;2023-01-19T12:12:33;98329.94;;;3.76;95.46
7157;BME280;3620;49.862;8.758;2023-01-19T12:15:09;98324.41;;;3.60;95.89
7157;BME280;3620;49.862;8.758;2023-01-19T12:17:46;98325.25;;;3.61;95.93
7157;BME280;3620;49.862;8.758;2023-01-19T12:20:24;98315.25;;;3.49;96.64
7157;BME280;3620;49.862;8.758;2023-01-19T12:23:00;98329.22;;;3.45;97.39
7157;BME280;3620;49.862;8.758;2023-01-19T12:25:40;98322.91;;;3.80;95.88
7157;BME280;3620;49.862;8.758;2023-01-19T12:28:11;98322.34;;;3.96;95.32
7157;BME280;3620;49.862;8.758;2023-01-19T12:30:39;98319.38;;;3.82;96.65
7157;BME280;3620;49.862;8.758;2023-01-19T12:33:33;98317.13;;;3.96;96.28
7157;BME280;3620;49.862;8.758;2023-01-19T12:36:04;98323.44;;;3.89;96.83
7157;BME280;3620;49.862;8.758;2023-01-19T12:38:40;98324.06;;;3.71;97.49
7157;BME280;3620;49.862;8.758;2023-01-19T12:41:28;98309.06;;;3.79;97.23
7157;BME280;3620;49.862;8.758;2023-01-19T12:44:21;98322.16;;;3.76;97.77
7157;BME280;3620;49.862;8.758;2023-01-19T12:46:52;98314.25;;;3.79;97.41
7157;BME280;3620;49.862;8.758;2023-01-19T12:49:26;98311.72;;;3.78;97.15
7157;BME280;3620;49.862;8.758;2023-01-19T12:52:12;98315.13;;;3.80;96.52
7157;BME280;3620;49.862;8.758;2023-01-19T12:54:50;98307.16;;;3.84;96.21
7157;BME280;3620;49.862;8.758;2023-01-19T12:57:21;98298.41;;;3.60;96.62
7157;BME280;3620;49.862;8.758;2023-01-19T12:59:54;98312.09;;;3.65;96.88
7157;BME280;3620;49.862;8.758;2023-01-19T13:02:49;98313.75;;;3.42;97.94
7157;BME280;3620;49.862;8.758;2023-01-19T13:05:21;98310.88;;;3.23;97.26
7157;BME280;3620;49.862;8.758;2023-01-19T13:08:17;98315.00;;;3.30;97.56
7157;BME280;3620;49.862;8.758;2023-01-19T13:11:18;98312.13;;;3.38;97.12
7157;BME280;3620;49.862;8.758;2023-01-19T13:16:59;98320.56;;;3.46;96.27
7157;BME280;3620;49.862;8.758;2023-01-19T13:19:35;98317.25;;;3.41;96.34
7157;BME280;3620;49.862;8.758;2023-01-19T13:25:06;98324.31;;;3.36;96.23
7157;BME280;3620;49.862;8.758;2023-01-19T13:27:33;98325.25;;;3.35;95.69
7157;BME280;3620;49.862;8.758;2023-01-19T13:30:00;98332.53;;;3.50;95.49
7157;BME280;3620;49.862;8.758;2023-01-19T13:32:27;98325.13;;;3.38;96.28
7157;BME280;3620;49.862;8.758;2023-01-19T13:34:55;98329.16;;;3.48;96.46
7157;BME280;3620;49.862;8.758;2023-01-19T13:37:26;98335.44;;;3.41;96.02
7157;BME280;3620;49.862;8.758;2023-01-19T13:39:55;98333.41;;;3.50;95.08
7157;BME280;3620;49.862;8.758;2023-01-19T13:42:27;98340.28;;;3.51;95.67
7157;BME280;3620;49.862;8.758;2023-01-19T13:44:57;98333.03;;;3.35;95.22
7157;BME280;3620;49.862;8.758;2023-01-19T13:47:31;98333.53;;;3.46;95.90
7157;BME280;3620;49.862;8.758;2023-01-19T13:50:01;98339.06;;;3.63;95.06
7157;BME280;3620;49.862;8.758;2023-01-19T13:52:28;98332.91;;;3.65;95.92